sensor_id;sensor_type;location;lat;lon;timestamp;P1;durP1;ratioP1;P2;durP2;ratioP2
60060;SDS011;45933;51.336;12.612;2022-08-25T00:00:35;14.15;;;9.60;;
60060;SDS011;45933;51.336;12.612;2022-08-25T00:03:00;14.00;;;10.18;;
60060;SDS011;45933;51.336;12.612;2022-08-25T00:05:27;12.02;;;9.70;;
60060;SDS011;45933;51.336;12.612;2022-08-25T00:07:55;11.10;;;9.80;;
60060;SDS011;45933;51.336;12.612;2022-08-25T00:10:21;12.63;;;9.60;;
60060;SDS011;45933;51.336;12.612;2022-08-25T00:12:46;13.52;;;9.88;;
60060;SDS011;45933;51.336;12.612;2022-08-25T00:15:12;12.98;;;9.90;;
60060;SDS011;45933;51.336;12.612;2022-08-25T00:17:37;16.58;;;10.02;;
60060;SDS011;45933;51.336;12.612;2022-08-25T00:20:03;13.85;;;10.82;;
60060;SDS011;45933;51.336;12.612;2022-08-25T00:22:30;12.82;;;9.90;;
60060;SDS011;45933;51.336;12.612;2022-08-25T00:24:55;12.55;;;10.30;;
60060;SDS011;45933;51.336;12.612;2022-08-25T00:27:21;12.52;;;9.95;;
60060;SDS011;45933;51.336;12.612;2022-08-25T00:29:46;20.17;;;10.15;;
60060;SDS011;45933;51.336;12.612;2022-08-25T00:32:12;11.82;;;9.52;;
60060;SDS011;45933;51.336;12.612;2022-08-25T00:34:37;11.40;;;10.23;;
60060;SDS011;45933;51.336;12.612;2022-08-25T00:37:04;14.95;;;9.77;;
60060;SDS011;45933;51.336;12.612;2022-08-25T00:39:31;14.50;;;10.32;;
60060;SDS011;45933;51.336;12.612;2022-08-25T00:41:57;11.75;;;10.05;;
60060;SDS011;45933;51.336;12.612;2022-08-25T00:44:24;16.85;;;10.85;;
60060;SDS011;45933;51.336;12.612;2022-08-25T00:46:53;13.75;;;10.80;;
60060;SDS011;45933;51.336;12.612;2022-08-25T00:49:24;14.60;;;10.80;;
60060;SDS011;45933;51.336;12.612;2022-08-25T00:52:12;14.13;;;10.75;;
60060;SDS011;45933;51.336;12.612;2022-08-25T00:54:45;13.68;;;9.70;;
60060;SDS011;45933;51.336;12.612;2022-08-25T00:57:17;13.45;;;11.25;;
60060;SDS011;45933;51.336;12.612;2022-08-25T00:59:49;14.73;;;10.75;;
60060;SDS011;45933;51.336;12.612;2022-08-25T01:02:15;17.77;;;11.30;;
60060;SDS011;45933;51.336;12.612;2022-08-25T01:04:44;15.40;;;10.75;;
60060;SDS011;45933;51.336;12.612;2022-08-25T01:07:10;13.30;;;11.77;;
60060;SDS011;45933;51.336;12.612;2022-08-25T01:09:37;11.93;;;10.70;;
60060;SDS011;45933;51.336;12.612;2022-08-25T01:12:02;13.63;;;10.80;;
60060;SDS011;45933;51.336;12.612;2022-08-25T01:14:28;16.52;;;10.68;;
60060;SDS011;45933;51.336;12.612;2022-08-25T01:16:56;13.93;;;11.00;;
60060;SDS011;45933;51.336;12.612;2022-08-25T01:19:23;15.95;;;11.50;;
60060;SDS011;45933;51.336;12.612;2022-08-25T01:21:51;13.07;;;11.10;;
60060;SDS011;45933;51.336;12.612;2022-08-25T01:25:04;15.68;;;11.68;;
60060;SDS011;45933;51.336;12.612;2022-08-25T01:27:23;12.88;;;11.38;;
60060;SDS011;45933;51.336;12.612;2022-08-25T01:29:49;15.13;;;11.30;;
60060;SDS011;45933;51.336;12.612;2022-08-25T01:32:14;13.30;;;10.90;;
60060;SDS011;45933;51.336;12.612;2022-08-25T01:34:41;13.30;;;11.65;;
60060;SDS011;45933;51.336;12.612;2022-08-25T01:37:09;13.40;;;11.68;;
60060;SDS011;45933;51.336;12.612;2022-08-25T01:39:37;16.83;;;12.00;;
60060;SDS011;45933;51.336;12.612;2022-08-25T01:44:31;13.77;;;11.38;;
60060;SDS011;45933;51.336;12.612;2022-08-25T01:47:00;17.13;;;12.73;;
60060;SDS011;45933;51.336;12.612;2022-08-25T01:49:25;15.48;;;11.95;;
60060;SDS011;45933;51.336;12.612;2022-08-25T01:51:52;14.77;;;11.88;;
60060;SDS011;45933;51.336;12.612;2022-08-25T01:54:21;13.43;;;12.02;;
60060;SDS011;45933;51.336;12.612;2022-08-25T01:56:47;13.38;;;11.02;;
60060;SDS011;45933;51.336;12.612;2022-08-25T01:59:14;14.52;;;11.35;;
60060;SDS011;45933;51.336;12.612;2022-08-25T02:01:41;14.70;;;11.18;;
60060;SDS011;45933;51.336;12.612;2022-08-25T02:04:07;17.15;;;11.60;;
60060;SDS011;45933;51.336;12.612;2022-08-25T02:06:36;15.00;;;12.23;;
60060;SDS011;45933;51.336;12.612;2022-08-25T02:09:13;16.70;;;11.68;;
60060;SDS011;45933;51.336;12.612;2022-08-25T02:11:41;14.50;;;12.13;;
60060;SDS011;45933;51.336;12.612;2022-08-25T02:14:09;15.75;;;12.40;;
60060;SDS011;45933;51.336;12.612;2022-08-25T02:16:38;14.88;;;12.45;;
60060;SDS011;45933;51.336;12.612;2022-08-25T02:19:07;16.73;;;12.98;;
60060;SDS011;45933;51.336;12.612;2022-08-25T02:21:34;14.80;;;11.82;;
60060;SDS011;45933;51.336;12.612;2022-08-25T02:24:00;15.95;;;12.40;;
60060;SDS011;45933;51.336;12.612;2022-08-25T02:26:26;14.90;;;12.23;;
60060;SDS011;45933;51.336;12.612;2022-08-25T02:28:52;16.08;;;12.93;;
60060;SDS011;45933;51.336;12.612;2022-08-25T02:31:19;16.88;;;13.43;;
60060;SDS011;45933;51.336;12.612;2022-08-25T02:33:46;14.43;;;12.65;;
60060;SDS011;45933;51.336;12.612;2022-08-25T02:36:12;14.77;;;12.32;;
60060;SDS011;45933;51.336;12.612;2022-08-25T02:38:38;18.13;;;12.80;;
60060;SDS011;45933;51.336;12.612;2022-08-25T02:41:08;21.08;;;13.10;;
60060;SDS011;45933;51.336;12.612;2022-08-25T02:43:41;17.10;;;12.57;;
60060;SDS011;45933;51.336;12.612;2022-08-25T02:46:08;13.77;;;12.38;;
60060;SDS011;45933;51.336;12.612;2022-08-25T02:48:35;14.70;;;12.60;;
60060;SDS011;45933;51.336;12.612;2022-08-25T02:51:02;15.73;;;12.45;;
60060;SDS011;45933;51.336;12.612;2022-08-25T02:53:30;15.68;;;12.48;;
60060;SDS011;45933;51.336;12.612;2022-08-25T02:55:56;15.45;;;11.95;;
60060;SDS011;45933;51.336;12.612;2022-08-25T02:58:22;16.73;;;11.93;;
60060;SDS011;45933;51.336;12.612;2022-08-25T03:00:48;16.50;;;12.70;;
60060;SDS011;45933;51.336;12.612;2022-08-25T03:03:14;17.67;;;12.15;;
60060;SDS011;45933;51.336;12.612;2022-08-25T03:05:40;15.25;;;11.68;;
60060;SDS011;45933;51.336;12.612;2022-08-25T03:08:05;13.98;;;12.30;;
60060;SDS011;45933;51.336;12.612;2022-08-25T03:10:31;15.30;;;12.40;;
60060;SDS011;45933;51.336;12.612;2022-08-25T03:12:57;13.93;;;10.98;;
60060;SDS011;45933;51.336;12.612;2022-08-25T03:15:23;16.35;;;12.77;;
60060;SDS011;45933;51.336;12.612;2022-08-25T03:17:51;16.60;;;12.30;;
60060;SDS011;45933;51.336;12.612;2022-08-25T03:20:19;17.48;;;12.50;;
60060;SDS011;45933;51.336;12.612;2022-08-25T03:22:48;15.48;;;13.57;;
60060;SDS011;45933;51.336;12.612;2022-08-25T03:25:14;14.15;;;12.57;;
60060;SDS011;45933;51.336;12.612;2022-08-25T03:27:58;16.98;;;13.07;;
60060;SDS011;45933;51.336;12.612;2022-08-25T03:30:25;19.10;;;13.80;;
60060;SDS011;45933;51.336;12.612;2022-08-25T03:32:51;15.55;;;13.65;;
60060;SDS011;45933;51.336;12.612;2022-08-25T03:35:16;18.25;;;13.35;;
60060;SDS011;45933;51.336;12.612;2022-08-25T03:37:42;17.23;;;13.07;;
60060;SDS011;45933;51.336;12.612;2022-08-25T03:40:09;15.63;;;13.15;;
60060;SDS011;45933;51.336;12.612;2022-08-25T03:42:40;21.42;;;14.10;;
60060;SDS011;45933;51.336;12.612;2022-08-25T03:45:06;18.85;;;12.73;;
60060;SDS011;45933;51.336;12.612;2022-08-25T03:47:33;14.38;;;12.32;;
60060;SDS011;45933;51.336;12.612;2022-08-25T03:49:58;13.55;;;12.15;;
60060;SDS011;45933;51.336;12.612;2022-08-25T03:52:24;15.52;;;12.55;;
60060;SDS011;45933;51.336;12.612;2022-08-25T03:54:49;15.98;;;12.48;;
60060;SDS011;45933;51.336;12.612;2022-08-25T03:57:15;21.02;;;12.98;;
60060;SDS011;45933;51.336;12.612;2022-08-25T03:59:40;15.30;;;13.20;;
60060;SDS011;45933;51.336;12.612;2022-08-25T04:02:06;17.00;;;13.18;;
60060;SDS011;45933;51.336;12.612;2022-08-25T04:04:32;15.63;;;13.18;;
60060;SDS011;45933;51.336;12.612;2022-08-25T04:06:59;14.13;;;12.63;;
60060;SDS011;45933;51.336;12.612;2022-08-25T04:09:24;16.90;;;13.80;;
60060;SDS011;45933;51.336;12.612;2022-08-25T04:11:50;16.23;;;13.20;;
60060;SDS011;45933;51.336;12.612;2022-08-25T04:14:16;21.25;;;14.02;;
60060;SDS011;45933;51.336;12.612;2022-08-25T04:16:42;17.35;;;14.35;;
60060;SDS011;45933;51.336;12.612;2022-08-25T04:19:08;17.63;;;14.13;;
60060;SDS011;45933;51.336;12.612;2022-08-25T04:21:35;16.02;;;13.70;;
60060;SDS011;45933;51.336;12.612;2022-08-25T04:24:01;15.90;;;12.68;;
60060;SDS011;45933;51.336;12.612;2022-08-25T04:26:29;15.95;;;12.85;;
60060;SDS011;45933;51.336;12.612;2022-08-25T04:28:56;16.48;;;12.70;;
60060;SDS011;45933;51.336;12.612;2022-08-25T04:31:24;18.92;;;13.70;;
60060;SDS011;45933;51.336;12.612;2022-08-25T04:33:50;16.02;;;12.82;;
60060;SDS011;45933;51.336;12.612;2022-08-25T04:36:17;19.05;;;12.82;;
60060;SDS011;45933;51.336;12.612;2022-08-25T04:38:43;20.13;;;13.02;;
60060;SDS011;45933;51.336;12.612;2022-08-25T04:41:11;16.65;;;12.95;;
60060;SDS011;45933;51.336;12.612;2022-08-25T04:43:38;19.02;;;14.05;;
60060;SDS011;45933;51.336;12.612;2022-08-25T04:46:08;17.17;;;12.45;;
60060;SDS011;45933;51.336;12.612;2022-08-25T04:48:36;17.35;;;12.88;;
60060;SDS011;45933;51.336;12.612;2022-08-25T04:51:08;15.80;;;12.68;;
60060;SDS011;45933;51.336;12.612;2022-08-25T04:53:35;17.30;;;13.95;;
60060;SDS011;45933;51.336;12.612;2022-08-25T04:56:03;16.35;;;13.18;;
60060;SDS011;45933;51.336;12.612;2022-08-25T04:58:30;15.98;;;13.73;;
60060;SDS011;45933;51.336;12.612;2022-08-25T05:01:06;18.33;;;13.65;;
60060;SDS011;45933;51.336;12.612;2022-08-25T05:03:36;16.27;;;14.50;;
60060;SDS011;45933;51.336;12.612;2022-08-25T05:06:03;20.30;;;13.85;;
60060;SDS011;45933;51.336;12.612;2022-08-25T05:08:29;19.77;;;14.25;;
60060;SDS011;45933;51.336;12.612;2022-08-25T05:10:55;21.33;;;14.55;;
60060;SDS011;45933;51.336;12.612;2022-08-25T05:13:21;16.38;;;13.68;;
60060;SDS011;45933;51.336;12.612;2022-08-25T05:15:52;14.88;;;12.95;;
60060;SDS011;45933;51.336;12.612;2022-08-25T05:18:19;17.52;;;14.10;;
60060;SDS011;45933;51.336;12.612;2022-08-25T05:20:46;16.05;;;13.82;;
60060;SDS011;45933;51.336;12.612;2022-08-25T05:23:11;16.42;;;13.73;;
60060;SDS011;45933;51.336;12.612;2022-08-25T05:25:36;16.60;;;14.20;;
60060;SDS011;45933;51.336;12.612;2022-08-25T05:28:02;16.17;;;13.52;;
60060;SDS011;45933;51.336;12.612;2022-08-25T05:30:28;16.75;;;13.80;;
60060;SDS011;45933;51.336;12.612;2022-08-25T05:32:54;17.55;;;13.77;;
60060;SDS011;45933;51.336;12.612;2022-08-25T05:35:19;16.83;;;14.25;;
60060;SDS011;45933;51.336;12.612;2022-08-25T05:37:45;14.63;;;13.02;;
60060;SDS011;45933;51.336;12.612;2022-08-25T05:40:11;17.00;;;14.15;;
60060;SDS011;45933;51.336;12.612;2022-08-25T05:42:37;17.63;;;13.15;;
60060;SDS011;45933;51.336;12.612;2022-08-25T05:45:03;17.92;;;14.50;;
60060;SDS011;45933;51.336;12.612;2022-08-25T05:47:29;15.80;;;13.95;;
60060;SDS011;45933;51.336;12.612;2022-08-25T05:49:55;18.10;;;14.40;;
60060;SDS011;45933;51.336;12.612;2022-08-25T05:52:21;21.33;;;14.75;;
60060;SDS011;45933;51.336;12.612;2022-08-25T05:54:47;17.77;;;13.95;;
60060;SDS011;45933;51.336;12.612;2022-08-25T05:57:12;18.15;;;14.98;;
60060;SDS011;45933;51.336;12.612;2022-08-25T05:59:38;20.77;;;14.48;;
60060;SDS011;45933;51.336;12.612;2022-08-25T06:02:03;18.55;;;14.43;;
60060;SDS011;45933;51.336;12.612;2022-08-25T06:04:47;17.27;;;13.43;;
60060;SDS011;45933;51.336;12.612;2022-08-25T06:07:12;16.75;;;13.68;;
60060;SDS011;45933;51.336;12.612;2022-08-25T06:09:38;17.38;;;13.93;;
60060;SDS011;45933;51.336;12.612;2022-08-25T06:12:05;16.05;;;13.93;;
60060;SDS011;45933;51.336;12.612;2022-08-25T06:14:31;18.08;;;13.73;;
60060;SDS011;45933;51.336;12.612;2022-08-25T06:16:57;17.52;;;13.15;;
60060;SDS011;45933;51.336;12.612;2022-08-25T06:19:24;17.48;;;13.90;;
60060;SDS011;45933;51.336;12.612;2022-08-25T06:21:54;17.48;;;14.40;;
60060;SDS011;45933;51.336;12.612;2022-08-25T06:24:20;17.98;;;13.98;;
60060;SDS011;45933;51.336;12.612;2022-08-25T06:26:46;16.83;;;13.65;;
60060;SDS011;45933;51.336;12.612;2022-08-25T06:29:12;17.67;;;14.20;;
60060;SDS011;45933;51.336;12.612;2022-08-25T06:31:41;19.42;;;14.32;;
60060;SDS011;45933;51.336;12.612;2022-08-25T06:34:07;16.08;;;13.73;;
60060;SDS011;45933;51.336;12.612;2022-08-25T06:36:32;22.50;;;15.27;;
60060;SDS011;45933;51.336;12.612;2022-08-25T06:38:58;18.20;;;14.93;;
60060;SDS011;45933;51.336;12.612;2022-08-25T06:41:24;18.35;;;15.35;;
60060;SDS011;45933;51.336;12.612;2022-08-25T06:43:49;18.25;;;14.88;;
60060;SDS011;45933;51.336;12.612;2022-08-25T06:46:16;19.55;;;15.27;;
60060;SDS011;45933;51.336;12.612;2022-08-25T06:48:44;17.60;;;15.68;;
60060;SDS011;45933;51.336;12.612;2022-08-25T06:51:11;20.48;;;15.93;;
60060;SDS011;45933;51.336;12.612;2022-08-25T06:53:37;17.00;;;14.35;;
60060;SDS011;45933;51.336;12.612;2022-08-25T06:56:03;20.25;;;15.23;;
60060;SDS011;45933;51.336;12.612;2022-08-25T06:58:30;22.27;;;16.13;;
60060;SDS011;45933;51.336;12.612;2022-08-25T07:01:04;21.38;;;17.02;;
60060;SDS011;45933;51.336;12.612;2022-08-25T07:03:31;20.10;;;15.45;;
60060;SDS011;45933;51.336;12.612;2022-08-25T07:05:56;19.73;;;14.77;;
60060;SDS011;45933;51.336;12.612;2022-08-25T07:08:22;18.90;;;15.20;;
60060;SDS011;45933;51.336;12.612;2022-08-25T07:10:47;20.10;;;14.05;;
60060;SDS011;45933;51.336;12.612;2022-08-25T07:13:13;20.83;;;12.82;;
60060;SDS011;45933;51.336;12.612;2022-08-25T07:15:39;17.02;;;12.88;;
60060;SDS011;45933;51.336;12.612;2022-08-25T07:18:06;14.95;;;13.35;;
60060;SDS011;45933;51.336;12.612;2022-08-25T07:20:34;16.25;;;13.68;;
60060;SDS011;45933;51.336;12.612;2022-08-25T07:23:00;15.63;;;12.75;;
60060;SDS011;45933;51.336;12.612;2022-08-25T07:25:26;14.23;;;12.45;;
60060;SDS011;45933;51.336;12.612;2022-08-25T07:27:51;15.25;;;12.60;;
60060;SDS011;45933;51.336;12.612;2022-08-25T07:30:17;14.20;;;11.38;;
60060;SDS011;45933;51.336;12.612;2022-08-25T07:32:42;17.70;;;12.65;;
60060;SDS011;45933;51.336;12.612;2022-08-25T07:35:08;15.93;;;13.40;;
60060;SDS011;45933;51.336;12.612;2022-08-25T07:37:45;15.02;;;11.50;;
60060;SDS011;45933;51.336;12.612;2022-08-25T07:40:17;17.13;;;11.27;;
60060;SDS011;45933;51.336;12.612;2022-08-25T07:42:47;12.65;;;10.40;;
60060;SDS011;45933;51.336;12.612;2022-08-25T07:45:14;15.23;;;11.30;;
60060;SDS011;45933;51.336;12.612;2022-08-25T07:47:40;17.08;;;12.40;;
60060;SDS011;45933;51.336;12.612;2022-08-25T07:50:06;12.20;;;10.52;;
60060;SDS011;45933;51.336;12.612;2022-08-25T07:52:34;12.75;;;11.15;;
60060;SDS011;45933;51.336;12.612;2022-08-25T07:54:59;20.20;;;11.85;;
60060;SDS011;45933;51.336;12.612;2022-08-25T07:57:25;13.82;;;11.32;;
60060;SDS011;45933;51.336;12.612;2022-08-25T07:59:52;14.82;;;11.75;;
60060;SDS011;45933;51.336;12.612;2022-08-25T08:02:18;15.60;;;11.23;;
60060;SDS011;45933;51.336;12.612;2022-08-25T08:04:43;14.43;;;10.88;;
60060;SDS011;45933;51.336;12.612;2022-08-25T08:07:09;13.85;;;11.25;;
60060;SDS011;45933;51.336;12.612;2022-08-25T08:09:35;14.30;;;11.25;;
60060;SDS011;45933;51.336;12.612;2022-08-25T08:12:00;13.05;;;11.07;;
60060;SDS011;45933;51.336;12.612;2022-08-25T08:14:27;13.88;;;11.02;;
60060;SDS011;45933;51.336;12.612;2022-08-25T08:16:52;18.85;;;10.93;;
60060;SDS011;45933;51.336;12.612;2022-08-25T08:19:18;13.13;;;10.38;;
60060;SDS011;45933;51.336;12.612;2022-08-25T08:21:44;17.77;;;10.20;;
60060;SDS011;45933;51.336;12.612;2022-08-25T08:24:10;16.20;;;10.20;;
60060;SDS011;45933;51.336;12.612;2022-08-25T08:26:36;15.52;;;10.05;;
60060;SDS011;45933;51.336;12.612;2022-08-25T08:29:01;13.60;;;10.20;;
60060;SDS011;45933;51.336;12.612;2022-08-25T08:31:26;13.95;;;9.90;;
60060;SDS011;45933;51.336;12.612;2022-08-25T08:33:53;16.98;;;9.95;;
60060;SDS011;45933;51.336;12.612;2022-08-25T08:36:19;11.15;;;9.95;;
60060;SDS011;45933;51.336;12.612;2022-08-25T08:38:46;12.70;;;8.70;;
60060;SDS011;45933;51.336;12.612;2022-08-25T08:44:04;12.32;;;8.55;;
60060;SDS011;45933;51.336;12.612;2022-08-25T08:46:39;14.35;;;8.20;;
60060;SDS011;45933;51.336;12.612;2022-08-25T08:49:25;13.65;;;8.63;;
60060;SDS011;45933;51.336;12.612;2022-08-25T08:51:59;15.48;;;9.07;;
60060;SDS011;45933;51.336;12.612;2022-08-25T08:54:28;13.68;;;8.82;;
60060;SDS011;45933;51.336;12.612;2022-08-25T08:57:08;13.95;;;8.57;;
60060;SDS011;45933;51.336;12.612;2022-08-25T08:59:39;11.77;;;8.38;;
60060;SDS011;45933;51.336;12.612;2022-08-25T09:02:26;11.98;;;8.75;;
60060;SDS011;45933;51.336;12.612;2022-08-25T09:04:58;12.43;;;8.13;;
60060;SDS011;45933;51.336;12.612;2022-08-25T09:07:30;15.57;;;9.05;;
60060;SDS011;45933;51.336;12.612;2022-08-25T09:10:01;14.52;;;8.73;;
60060;SDS011;45933;51.336;12.612;2022-08-25T09:12:42;15.13;;;9.05;;
60060;SDS011;45933;51.336;12.612;2022-08-25T09:18:13;11.60;;;8.15;;
60060;SDS011;45933;51.336;12.612;2022-08-25T09:21:53;14.00;;;8.57;;
60060;SDS011;45933;51.336;12.612;2022-08-25T09:24:02;14.90;;;8.00;;
60060;SDS011;45933;51.336;12.612;2022-08-25T09:26:46;14.45;;;9.20;;
60060;SDS011;45933;51.336;12.612;2022-08-25T09:29:19;12.27;;;8.60;;
60060;SDS011;45933;51.336;12.612;2022-08-25T09:31:48;12.18;;;7.90;;
60060;SDS011;45933;51.336;12.612;2022-08-25T09:34:19;13.07;;;8.40;;
60060;SDS011;45933;51.336;12.612;2022-08-25T09:36:46;12.60;;;8.60;;
60060;SDS011;45933;51.336;12.612;2022-08-25T09:39:16;12.15;;;9.25;;
60060;SDS011;45933;51.336;12.612;2022-08-25T09:41:48;12.73;;;7.97;;
60060;SDS011;45933;51.336;12.612;2022-08-25T09:44:58;16.27;;;9.18;;
60060;SDS011;45933;51.336;12.612;2022-08-25T09:49:43;17.50;;;8.55;;
60060;SDS011;45933;51.336;12.612;2022-08-25T09:52:19;17.23;;;10.25;;
60060;SDS011;45933;51.336;12.612;2022-08-25T09:55:42;11.75;;;8.40;;
60060;SDS011;45933;51.336;12.612;2022-08-25T09:57:52;15.20;;;9.38;;
60060;SDS011;45933;51.336;12.612;2022-08-25T10:00:23;16.40;;;8.80;;
60060;SDS011;45933;51.336;12.612;2022-08-25T10:05:56;15.65;;;8.95;;
60060;SDS011;45933;51.336;12.612;2022-08-25T10:08:33;15.07;;;8.93;;
60060;SDS011;45933;51.336;12.612;2022-08-25T10:11:05;15.63;;;8.77;;
60060;SDS011;45933;51.336;12.612;2022-08-25T10:16:12;14.50;;;8.63;;
60060;SDS011;45933;51.336;12.612;2022-08-25T10:18:58;18.92;;;8.85;;
60060;SDS011;45933;51.336;12.612;2022-08-25T10:21:35;14.93;;;8.73;;
60060;SDS011;45933;51.336;12.612;2022-08-25T10:24:02;22.23;;;8.70;;
60060;SDS011;45933;51.336;12.612;2022-08-25T10:27:13;15.82;;;8.20;;
60060;SDS011;45933;51.336;12.612;2022-08-25T10:35:23;15.18;;;8.55;;
60060;SDS011;45933;51.336;12.612;2022-08-25T10:40:53;14.70;;;8.15;;
60060;SDS011;45933;51.336;12.612;2022-08-25T10:43:31;18.58;;;8.57;;
60060;SDS011;45933;51.336;12.612;2022-08-25T10:46:14;17.30;;;8.93;;
60060;SDS011;45933;51.336;12.612;2022-08-25T10:48:55;16.00;;;9.20;;
60060;SDS011;45933;51.336;12.612;2022-08-25T10:51:32;18.02;;;8.15;;
60060;SDS011;45933;51.336;12.612;2022-08-25T10:57:13;18.02;;;9.18;;
60060;SDS011;45933;51.336;12.612;2022-08-25T11:00:04;19.90;;;9.13;;
60060;SDS011;45933;51.336;12.612;2022-08-25T11:08:28;21.02;;;8.73;;
60060;SDS011;45933;51.336;12.612;2022-08-25T11:11:03;21.77;;;9.35;;
60060;SDS011;45933;51.336;12.612;2022-08-25T11:13:41;17.30;;;9.77;;
60060;SDS011;45933;51.336;12.612;2022-08-25T11:16:16;19.50;;;9.07;;
60060;SDS011;45933;51.336;12.612;2022-08-25T11:18:50;21.52;;;9.77;;
60060;SDS011;45933;51.336;12.612;2022-08-25T11:21:32;20.50;;;8.82;;
60060;SDS011;45933;51.336;12.612;2022-08-25T11:26:43;16.13;;;8.50;;
60060;SDS011;45933;51.336;12.612;2022-08-25T11:29:15;22.02;;;8.52;;
60060;SDS011;45933;51.336;12.612;2022-08-25T11:31:43;15.05;;;7.53;;
60060;SDS011;45933;51.336;12.612;2022-08-25T11:34:12;13.30;;;8.38;;
60060;SDS011;45933;51.336;12.612;2022-08-25T11:36:40;14.85;;;8.35;;
60060;SDS011;45933;51.336;12.612;2022-08-25T11:39:35;15.98;;;8.07;;
60060;SDS011;45933;51.336;12.612;2022-08-25T11:50:57;21.02;;;8.93;;
60060;SDS011;45933;51.336;12.612;2022-08-25T11:53:44;16.70;;;7.75;;
60060;SDS011;45933;51.336;12.612;2022-08-25T11:56:11;17.02;;;7.10;;
60060;SDS011;45933;51.336;12.612;2022-08-25T11:58:56;15.68;;;8.27;;
60060;SDS011;45933;51.336;12.612;2022-08-25T12:09:34;18.55;;;8.20;;
60060;SDS011;45933;51.336;12.612;2022-08-25T12:15:20;23.55;;;8.15;;
60060;SDS011;45933;51.336;12.612;2022-08-25T12:23:16;18.98;;;7.20;;
60060;SDS011;45933;51.336;12.612;2022-08-25T12:25:56;21.48;;;7.50;;
60060;SDS011;45933;51.336;12.612;2022-08-25T12:31:22;16.60;;;7.40;;
60060;SDS011;45933;51.336;12.612;2022-08-25T12:34:13;21.52;;;7.10;;
60060;SDS011;45933;51.336;12.612;2022-08-25T12:36:48;24.08;;;7.75;;
60060;SDS011;45933;51.336;12.612;2022-08-25T12:39:22;23.48;;;7.80;;
60060;SDS011;45933;51.336;12.612;2022-08-25T12:41:54;20.48;;;7.50;;
60060;SDS011;45933;51.336;12.612;2022-08-25T12:44:36;24.75;;;8.18;;
60060;SDS011;45933;51.336;12.612;2022-08-25T12:47:26;23.30;;;7.53;;
60060;SDS011;45933;51.336;12.612;2022-08-25T12:50:39;19.05;;;7.22;;
60060;SDS011;45933;51.336;12.612;2022-08-25T12:52:50;17.85;;;6.72;;
60060;SDS011;45933;51.336;12.612;2022-08-25T12:55:17;18.92;;;7.20;;
60060;SDS011;45933;51.336;12.612;2022-08-25T13:08:53;21.63;;;7.97;;
60060;SDS011;45933;51.336;12.612;2022-08-25T13:14:44;20.33;;;7.63;;
60060;SDS011;45933;51.336;12.612;2022-08-25T13:17:31;20.30;;;7.95;;
60060;SDS011;45933;51.336;12.612;2022-08-25T13:20:14;22.70;;;7.78;;
60060;SDS011;45933;51.336;12.612;2022-08-25T13:22:44;16.02;;;7.55;;
60060;SDS011;45933;51.336;12.612;2022-08-25T13:25:16;19.38;;;8.15;;
60060;SDS011;45933;51.336;12.612;2022-08-25T13:27:51;19.45;;;7.32;;
60060;SDS011;45933;51.336;12.612;2022-08-25T13:30:25;14.43;;;6.90;;
60060;SDS011;45933;51.336;12.612;2022-08-25T13:32:53;19.33;;;7.10;;
60060;SDS011;45933;51.336;12.612;2022-08-25T13:35:26;20.30;;;7.50;;
60060;SDS011;45933;51.336;12.612;2022-08-25T13:38:05;22.98;;;7.90;;
60060;SDS011;45933;51.336;12.612;2022-08-25T13:40:36;21.10;;;7.25;;
60060;SDS011;45933;51.336;12.612;2022-08-25T13:43:06;17.10;;;6.93;;
60060;SDS011;45933;51.336;12.612;2022-08-25T13:45:36;17.20;;;7.35;;
60060;SDS011;45933;51.336;12.612;2022-08-25T13:48:12;18.05;;;7.43;;
60060;SDS011;45933;51.336;12.612;2022-08-25T13:51:02;24.98;;;8.13;;
60060;SDS011;45933;51.336;12.612;2022-08-25T13:53:46;22.45;;;7.50;;
60060;SDS011;45933;51.336;12.612;2022-08-25T13:56:13;16.88;;;6.93;;
60060;SDS011;45933;51.336;12.612;2022-08-25T13:58:48;19.67;;;7.43;;
60060;SDS011;45933;51.336;12.612;2022-08-25T14:03:42;23.83;;;7.43;;
60060;SDS011;45933;51.336;12.612;2022-08-25T14:08:48;18.63;;;6.75;;
60060;SDS011;45933;51.336;12.612;2022-08-25T14:11:30;22.02;;;6.95;;
60060;SDS011;45933;51.336;12.612;2022-08-25T14:16:25;22.15;;;7.78;;
60060;SDS011;45933;51.336;12.612;2022-08-25T14:18:52;31.77;;;7.22;;
60060;SDS011;45933;51.336;12.612;2022-08-25T14:21:24;18.23;;;7.00;;
60060;SDS011;45933;51.336;12.612;2022-08-25T14:23:52;16.15;;;6.95;;
60060;SDS011;45933;51.336;12.612;2022-08-25T14:26:19;26.80;;;7.65;;
60060;SDS011;45933;51.336;12.612;2022-08-25T14:28:44;21.80;;;7.20;;
60060;SDS011;45933;51.336;12.612;2022-08-25T14:31:14;19.33;;;7.43;;
60060;SDS011;45933;51.336;12.612;2022-08-25T14:33:50;25.80;;;7.35;;
60060;SDS011;45933;51.336;12.612;2022-08-25T14:36:22;16.42;;;7.10;;
60060;SDS011;45933;51.336;12.612;2022-08-25T14:38:48;23.33;;;7.78;;
60060;SDS011;45933;51.336;12.612;2022-08-25T14:41:13;16.60;;;6.90;;
60060;SDS011;45933;51.336;12.612;2022-08-25T14:43:40;19.13;;;7.30;;
60060;SDS011;45933;51.336;12.612;2022-08-25T14:46:09;21.40;;;7.03;;
60060;SDS011;45933;51.336;12.612;2022-08-25T14:48:44;26.85;;;6.90;;
60060;SDS011;45933;51.336;12.612;2022-08-25T14:51:12;18.38;;;6.68;;
60060;SDS011;45933;51.336;12.612;2022-08-25T14:53:40;27.80;;;7.32;;
60060;SDS011;45933;51.336;12.612;2022-08-25T14:56:06;19.02;;;7.57;;
60060;SDS011;45933;51.336;12.612;2022-08-25T14:58:31;21.10;;;7.03;;
60060;SDS011;45933;51.336;12.612;2022-08-25T15:00:57;20.40;;;6.85;;
60060;SDS011;45933;51.336;12.612;2022-08-25T15:03:27;28.60;;;7.50;;
60060;SDS011;45933;51.336;12.612;2022-08-25T15:05:55;22.48;;;8.25;;
60060;SDS011;45933;51.336;12.612;2022-08-25T15:08:21;20.58;;;6.97;;
60060;SDS011;45933;51.336;12.612;2022-08-25T15:11:05;21.92;;;7.63;;
60060;SDS011;45933;51.336;12.612;2022-08-25T15:13:30;16.30;;;6.78;;
60060;SDS011;45933;51.336;12.612;2022-08-25T15:15:56;17.02;;;7.18;;
60060;SDS011;45933;51.336;12.612;2022-08-25T15:18:22;19.83;;;7.22;;
60060;SDS011;45933;51.336;12.612;2022-08-25T15:20:49;21.05;;;6.53;;
60060;SDS011;45933;51.336;12.612;2022-08-25T15:23:16;20.23;;;7.38;;
60060;SDS011;45933;51.336;12.612;2022-08-25T15:25:42;13.40;;;7.40;;
60060;SDS011;45933;51.336;12.612;2022-08-25T15:28:09;23.92;;;7.38;;
60060;SDS011;45933;51.336;12.612;2022-08-25T15:30:35;16.00;;;7.22;;
60060;SDS011;45933;51.336;12.612;2022-08-25T15:33:01;19.05;;;7.13;;
60060;SDS011;45933;51.336;12.612;2022-08-25T15:35:26;19.08;;;7.25;;
60060;SDS011;45933;51.336;12.612;2022-08-25T15:37:51;18.42;;;7.32;;
60060;SDS011;45933;51.336;12.612;2022-08-25T15:40:17;20.00;;;7.25;;
60060;SDS011;45933;51.336;12.612;2022-08-25T15:42:43;16.70;;;6.40;;
60060;SDS011;45933;51.336;12.612;2022-08-25T15:45:09;19.90;;;7.13;;
60060;SDS011;45933;51.336;12.612;2022-08-25T15:47:35;15.10;;;7.57;;
60060;SDS011;45933;51.336;12.612;2022-08-25T15:50:04;13.80;;;7.15;;
60060;SDS011;45933;51.336;12.612;2022-08-25T15:52:31;13.27;;;6.70;;
60060;SDS011;45933;51.336;12.612;2022-08-25T15:54:57;16.35;;;7.00;;